createdAt,value
2018-02-14T00:02:07.151Z,10.15
2018-02-14T00:04:35.563Z,6.22
2018-02-14T00:07:04.093Z,7.85
2018-02-14T00:09:32.493Z,8.27
2018-02-14T00:12:00.885Z,7.25
2018-02-14T00:14:29.291Z,7.62
2018-02-14T00:16:57.703Z,10.77
2018-02-14T00:19:26.870Z,7.70
2018-02-14T00:21:56.114Z,8.35
2018-02-14T00:24:25.251Z,10.93
2018-02-14T00:26:53.702Z,7.12
2018-02-14T00:29:22.086Z,5.97
2018-02-14T00:31:50.525Z,6.43
2018-02-14T00:34:18.927Z,7.80
2018-02-14T00:36:48.110Z,10.73
2018-02-14T00:39:16.507Z,8.93
2018-02-14T00:41:45.656Z,9.90
2018-02-14T00:44:14.039Z,8.68
2018-02-14T00:46:42.486Z,8.95
2018-02-14T00:49:10.880Z,13.77
2018-02-14T00:51:39.273Z,6.85
2018-02-14T00:54:07.669Z,8.90
2018-02-14T00:56:36.092Z,9.68
2018-02-14T00:59:04.498Z,11.48
2018-02-14T01:01:32.895Z,9.25
2018-02-14T01:04:01.288Z,9.63
2018-02-14T01:06:29.687Z,7.82
2018-02-14T01:08:58.132Z,8.38
2018-02-14T01:11:26.527Z,10.70
2018-02-14T01:13:54.913Z,10.57
2018-02-14T01:16:23.306Z,7.95
2018-02-14T01:18:51.732Z,9.75
2018-02-14T01:21:21.048Z,10.38
2018-02-14T01:23:49.529Z,8.57
2018-02-14T01:26:17.927Z,7.60
2018-02-14T01:28:46.346Z,10.25
2018-02-14T01:31:15.503Z,11.77
2018-02-14T01:33:43.987Z,11.12
2018-02-14T01:36:12.530Z,7.82
2018-02-14T01:38:41.026Z,9.88
2018-02-14T01:41:09.416Z,9.38
2018-02-14T01:43:37.815Z,11.35
2018-02-14T01:46:06.241Z,9.77
2018-02-14T01:48:35.410Z,10.07
2018-02-14T01:51:03.815Z,13.48
2018-02-14T01:53:33.054Z,8.77
2018-02-14T01:56:01.481Z,8.07
2018-02-14T01:58:29.871Z,9.38
2018-02-14T02:00:59.023Z,8.55
2018-02-14T02:03:27.440Z,10.30
2018-02-14T02:05:55.855Z,10.73
2018-02-14T02:08:24.407Z,9.85
2018-02-14T02:10:52.798Z,7.12
2018-02-14T02:13:22.027Z,11.65
2018-02-14T02:15:50.410Z,8.95
2018-02-14T02:18:18.806Z,10.23
2018-02-14T02:20:47.248Z,10.32
2018-02-14T02:23:15.653Z,14.18
2018-02-14T02:25:44.059Z,8.57
2018-02-14T02:28:12.477Z,12.40
2018-02-14T02:30:41.671Z,12.75
2018-02-14T02:33:10.073Z,10.07
2018-02-14T02:35:38.507Z,11.85
2018-02-14T02:38:06.916Z,8.98
2018-02-14T02:40:36.067Z,9.27
2018-02-14T02:43:04.475Z,13.20
2018-02-14T02:45:33.628Z,10.65
2018-02-14T02:48:02.030Z,6.70
2018-02-14T02:50:31.043Z,11.70
2018-02-14T02:52:59.466Z,13.85
2018-02-14T02:55:27.890Z,9.98
2018-02-14T02:57:56.395Z,7.32
2018-02-14T03:00:24.769Z,10.40
2018-02-14T03:02:53.156Z,11.80
2018-02-14T03:05:22.312Z,10.90
2018-02-14T03:07:50.708Z,9.82
2018-02-14T03:10:19.099Z,9.05
2018-02-14T03:12:47.489Z,10.30
2018-02-14T03:15:16.048Z,7.62
2018-02-14T03:17:44.467Z,9.25
2018-02-14T03:20:13.633Z,10.13
2018-02-14T03:22:42.045Z,9.52
2018-02-14T03:25:11.227Z,12.15
2018-02-14T03:27:39.604Z,12.60
2018-02-14T03:30:08.111Z,10.95
2018-02-14T03:32:37.291Z,13.55
2018-02-14T03:35:05.702Z,13.43
2018-02-14T03:37:34.162Z,10.05
2018-02-14T03:40:03.354Z,9.25
2018-02-14T03:42:31.879Z,13.18
2018-02-14T03:45:00.271Z,11.18
2018-02-14T03:47:28.691Z,13.23
2018-02-14T03:49:57.074Z,11.65
2018-02-14T03:52:25.491Z,13.80
2018-02-14T03:54:54.224Z,8.43
2018-02-14T03:57:22.621Z,7.22
2018-02-14T03:59:50.994Z,13.40
2018-02-14T04:02:19.374Z,11.02
2018-02-14T04:04:47.771Z,9.77
2018-02-14T04:07:16.187Z,11.85
2018-02-14T04:09:44.620Z,11.85
2018-02-14T04:12:13.023Z,12.23
2018-02-14T04:14:41.537Z,8.95
2018-02-14T04:17:09.927Z,16.02
2018-02-14T04:19:38.527Z,15.00
2018-02-14T04:22:06.943Z,10.90
2018-02-14T04:24:35.344Z,10.60
2018-02-14T04:27:03.874Z,10.85
2018-02-14T04:29:32.265Z,10.07
2018-02-14T04:32:00.689Z,12.13
2018-02-14T04:34:29.107Z,10.50
2018-02-14T04:36:57.485Z,9.70
2018-02-14T04:39:25.899Z,11.07
2018-02-14T04:41:55.059Z,11.90
2018-02-14T04:44:23.550Z,9.77
2018-02-14T04:46:51.939Z,10.80
2018-02-14T04:49:20.326Z,12.88
2018-02-14T04:51:48.751Z,12.23
2018-02-14T04:54:17.147Z,10.55
2018-02-14T04:56:46.322Z,12.43
2018-02-14T04:59:14.726Z,13.77
2018-02-14T05:01:43.969Z,13.05
2018-02-14T05:04:12.624Z,15.25
2018-02-14T05:06:41.816Z,12.35
2018-02-14T05:09:10.207Z,11.05
2018-02-14T05:11:39.363Z,15.60
2018-02-14T05:14:07.933Z,15.35
2018-02-14T05:16:36.613Z,14.57
2018-02-14T05:19:04.995Z,15.15
2018-02-14T05:21:33.486Z,13.68
2018-02-14T05:24:01.898Z,14.65
2018-02-14T05:26:31.038Z,14.98
2018-02-14T05:28:59.421Z,15.35
2018-02-14T05:31:27.819Z,14.25
2018-02-14T05:33:56.294Z,10.65
2018-02-14T05:36:24.696Z,13.00
2018-02-14T05:38:53.092Z,11.65
2018-02-14T05:41:22.276Z,14.87
2018-02-14T05:43:51.596Z,13.62
2018-02-14T05:46:22.274Z,13.82
2018-02-14T05:48:50.696Z,12.98
2018-02-14T05:51:19.109Z,18.77
2018-02-14T05:53:47.489Z,15.32
2018-02-14T05:56:15.917Z,12.02
2018-02-14T05:58:44.351Z,13.43
2018-02-14T06:01:12.755Z,14.18
2018-02-14T06:03:41.187Z,12.90
2018-02-14T06:06:09.566Z,12.50
2018-02-14T06:08:37.993Z,17.37
2018-02-14T06:11:06.413Z,14.52
2018-02-14T06:13:34.812Z,14.45
2018-02-14T06:16:04.120Z,17.67
2018-02-14T06:18:33.297Z,16.42
2018-02-14T06:21:01.880Z,16.58
2018-02-14T06:23:30.283Z,17.98
2018-02-14T06:25:59.484Z,17.87
2018-02-14T06:28:28.665Z,13.85
2018-02-14T06:30:57.067Z,16.87
2018-02-14T06:33:25.506Z,17.60
2018-02-14T06:35:53.938Z,16.83
2018-02-14T06:38:22.433Z,15.82
2018-02-14T06:40:51.017Z,19.17
2018-02-14T06:43:19.452Z,13.68
2018-02-14T06:45:47.829Z,15.02
2018-02-14T06:48:16.244Z,19.75
2018-02-14T06:50:44.722Z,17.80
2018-02-14T06:53:13.366Z,15.55
2018-02-14T06:55:42.539Z,15.00
2018-02-14T06:58:10.929Z,16.02
2018-02-14T07:00:39.363Z,18.92
2018-02-14T07:03:07.795Z,20.88
2018-02-14T07:05:36.376Z,18.90
2018-02-14T07:08:04.758Z,19.95
2018-02-14T07:10:33.183Z,13.65
2018-02-14T07:13:02.357Z,20.17
2018-02-14T07:15:30.763Z,11.90
2018-02-14T07:18:00.110Z,16.42
2018-02-14T07:20:28.575Z,17.23
2018-02-14T07:22:56.998Z,17.52
2018-02-14T07:25:25.403Z,18.85
2018-02-14T07:27:54.577Z,18.15
2018-02-14T07:30:22.982Z,19.62
2018-02-14T07:32:51.416Z,16.15
2018-02-14T07:35:19.801Z,15.32
2018-02-14T07:37:48.203Z,18.67
2018-02-14T07:40:16.635Z,16.27
2018-02-14T07:42:45.031Z,20.45
2018-02-14T07:45:13.427Z,18.52
2018-02-14T07:47:41.824Z,18.67
2018-02-14T07:50:10.989Z,21.58
2018-02-14T07:52:39.393Z,17.27
2018-02-14T07:55:07.783Z,18.00
2018-02-14T07:57:36.968Z,18.35
2018-02-14T08:00:05.361Z,17.55
2018-02-14T08:02:33.773Z,16.05
2018-02-14T08:05:02.163Z,20.00
2018-02-14T08:07:30.644Z,19.23
2018-02-14T08:09:59.064Z,17.85
2018-02-14T08:12:27.494Z,17.98
2018-02-14T08:14:55.912Z,15.18
2018-02-14T08:17:24.333Z,15.80
2018-02-14T08:19:52.771Z,19.17
2018-02-14T08:22:21.170Z,20.67
2018-02-14T08:24:50.519Z,21.08
2018-02-14T08:27:18.920Z,17.75
2018-02-14T08:29:47.347Z,20.23
2018-02-14T08:32:16.556Z,16.80
2018-02-14T08:34:44.967Z,19.52
2018-02-14T08:37:13.391Z,18.95
2018-02-14T08:39:41.829Z,15.30
2018-02-14T08:42:10.220Z,23.98
2018-02-14T08:44:38.627Z,18.73
2018-02-14T08:47:07.049Z,19.48
2018-02-14T08:49:35.456Z,19.52
2018-02-14T08:52:03.866Z,18.00
2018-02-14T08:54:32.298Z,19.23
2018-02-14T08:57:00.785Z,18.95
2018-02-14T08:59:29.213Z,16.73
2018-02-14T09:01:57.673Z,21.42
2018-02-14T09:04:26.092Z,20.33
2018-02-14T09:06:55.292Z,20.27
2018-02-14T09:09:24.471Z,20.60
2018-02-14T09:11:52.875Z,15.40
2018-02-14T09:14:22.313Z,17.58
2018-02-14T09:16:50.790Z,18.08
2018-02-14T09:19:19.178Z,19.17
2018-02-14T09:21:47.652Z,19.12
2018-02-14T09:24:16.255Z,16.25
2018-02-14T09:26:44.691Z,16.62
2018-02-14T09:29:13.087Z,23.42
2018-02-14T09:31:41.491Z,13.40
2018-02-14T09:34:09.872Z,18.77
2018-02-14T09:36:38.324Z,20.00
2018-02-14T09:39:06.746Z,17.60
2018-02-14T09:41:35.271Z,18.75
2018-02-14T09:44:04.423Z,15.60
2018-02-14T09:46:32.828Z,16.90
2018-02-14T09:49:01.217Z,20.92
2018-02-14T09:51:30.436Z,17.62
2018-02-14T09:53:59.669Z,16.40
2018-02-14T09:56:28.081Z,16.30
2018-02-14T09:58:56.496Z,21.27
2018-02-14T10:01:25.665Z,14.90
2018-02-14T10:03:54.084Z,14.80
2018-02-14T10:06:22.500Z,17.13
2018-02-14T10:08:50.883Z,17.13
2018-02-14T10:11:19.274Z,16.93
2018-02-14T10:13:48.190Z,15.20
2018-02-14T10:16:16.588Z,19.37
2018-02-14T10:18:45.756Z,15.60
2018-02-14T10:21:15.459Z,18.40
2018-02-14T10:23:43.852Z,10.17
2018-02-14T10:26:12.281Z,15.70
2018-02-14T10:28:40.690Z,18.42
2018-02-14T10:31:09.179Z,15.60
2018-02-14T10:33:37.576Z,15.15
2018-02-14T10:36:06.023Z,12.45
2018-02-14T10:38:34.501Z,13.50
2018-02-14T10:41:02.987Z,9.90
2018-02-14T10:43:31.403Z,14.20
2018-02-14T10:45:59.819Z,13.02
2018-02-14T10:48:28.993Z,14.87
2018-02-14T10:50:57.378Z,14.20
2018-02-14T10:53:25.955Z,10.32
2018-02-14T10:55:54.333Z,9.73
2018-02-14T10:58:22.986Z,13.00
2018-02-14T11:00:56.727Z,12.82
2018-02-14T11:03:30.687Z,15.07
2018-02-14T11:06:04.406Z,12.05
2018-02-14T11:08:33.130Z,10.02
2018-02-14T11:11:01.528Z,9.38
2018-02-14T11:13:30.696Z,12.95
2018-02-14T11:15:59.114Z,14.40
2018-02-14T11:18:28.264Z,9.85
2018-02-14T11:20:56.721Z,11.25
2018-02-14T11:23:25.118Z,8.32
2018-02-14T11:25:53.503Z,12.00
2018-02-14T11:28:21.914Z,15.45
2018-02-14T11:30:50.325Z,11.88
2018-02-14T11:33:19.563Z,7.85
2018-02-14T11:35:47.962Z,11.55
2018-02-14T11:38:16.540Z,9.43
2018-02-14T11:40:44.991Z,8.80
2018-02-14T11:43:13.400Z,15.32
2018-02-14T11:45:41.823Z,11.12
2018-02-14T11:48:10.226Z,8.60
2018-02-14T11:50:39.382Z,13.77
2018-02-14T11:53:07.775Z,11.65
2018-02-14T11:55:36.182Z,9.85
2018-02-14T11:58:05.327Z,10.10
2018-02-14T12:00:33.713Z,11.95
2018-02-14T12:03:02.145Z,14.15
2018-02-14T12:05:31.380Z,7.55
2018-02-14T12:07:59.763Z,9.05
2018-02-14T12:10:28.167Z,8.43
2018-02-14T12:12:56.562Z,10.02
2018-02-14T12:15:24.962Z,12.18
2018-02-14T12:17:54.097Z,8.90
2018-02-14T12:20:22.475Z,8.70
2018-02-14T12:22:50.896Z,8.93
2018-02-14T12:25:19.317Z,9.15
2018-02-14T12:27:47.822Z,10.77
2018-02-14T12:30:16.228Z,9.23
2018-02-14T12:32:44.613Z,8.55
2018-02-14T12:35:13.164Z,13.15
2018-02-14T12:37:41.561Z,11.27
2018-02-14T12:40:09.961Z,7.93
2018-02-14T12:42:38.846Z,8.20
2018-02-14T12:45:07.781Z,9.52
2018-02-14T12:47:36.157Z,9.93
2018-02-14T12:50:04.571Z,11.98
2018-02-14T12:52:33.763Z,10.48
2018-02-14T12:55:02.911Z,11.50
2018-02-14T12:57:31.318Z,10.00
2018-02-14T12:59:59.724Z,10.07
2018-02-14T13:02:28.863Z,9.88
2018-02-14T13:04:57.259Z,9.32
2018-02-14T13:07:25.622Z,8.70
2018-02-14T13:09:54.006Z,9.43
2018-02-14T13:12:22.408Z,8.98
2018-02-14T13:14:50.882Z,9.98
2018-02-14T13:17:19.312Z,6.95
2018-02-14T13:19:48.520Z,7.18
2018-02-14T13:22:16.923Z,8.88
2018-02-14T13:24:45.336Z,15.57
2018-02-14T13:27:13.729Z,9.10
2018-02-14T13:29:42.130Z,9.52
2018-02-14T13:32:11.326Z,9.98
2018-02-14T13:34:40.492Z,8.95
2018-02-14T13:37:09.713Z,10.27
2018-02-14T13:39:38.855Z,10.40
2018-02-14T13:42:07.281Z,15.20
2018-02-14T13:44:35.655Z,11.45
2018-02-14T13:47:04.074Z,8.70
2018-02-14T13:49:32.521Z,10.15
2018-02-14T13:52:01.735Z,10.07
2018-02-14T13:54:30.294Z,10.85
2018-02-14T13:56:58.855Z,8.45
2018-02-14T13:59:27.243Z,12.95
2018-02-14T14:01:55.681Z,10.70
2018-02-14T14:04:25.187Z,9.82
2018-02-14T14:06:53.651Z,11.45
2018-02-14T14:09:22.217Z,9.07
2018-02-14T14:11:50.675Z,9.50
2018-02-14T14:14:19.056Z,12.80
2018-02-14T14:16:47.463Z,14.43
2018-02-14T14:19:15.872Z,11.03
2018-02-14T14:21:44.314Z,8.30
2018-02-14T14:24:12.744Z,10.35
2018-02-14T14:26:41.127Z,10.07
2018-02-14T14:29:09.540Z,11.80
2018-02-14T14:31:38.168Z,8.00
2018-02-14T14:34:07.400Z,8.23
2018-02-14T14:36:35.810Z,9.23
2018-02-14T14:39:04.363Z,11.30
2018-02-14T14:41:32.756Z,6.13
2018-02-14T14:44:01.132Z,8.97
2018-02-14T14:46:29.563Z,6.70
2018-02-14T14:48:58.164Z,6.70
2018-02-14T14:51:27.472Z,12.50
2018-02-14T14:53:56.658Z,10.02
2018-02-14T14:56:25.110Z,7.62
2018-02-14T14:58:53.543Z,6.82
2018-02-14T15:01:22.792Z,6.35
2018-02-14T15:03:51.199Z,8.02
2018-02-14T15:06:19.742Z,5.53
2018-02-14T15:08:48.155Z,7.07
2018-02-14T15:11:16.557Z,8.18
2018-02-14T15:13:44.954Z,8.63
2018-02-14T15:16:14.148Z,7.43
2018-02-14T15:18:43.386Z,6.40
2018-02-14T15:21:11.784Z,8.15
2018-02-14T15:23:40.154Z,7.15
2018-02-14T15:26:08.788Z,7.90
2018-02-14T15:28:37.959Z,7.00
2018-02-14T15:31:06.342Z,7.37
2018-02-14T15:33:34.771Z,7.18
2018-02-14T15:36:03.211Z,8.35
2018-02-14T15:38:31.604Z,6.22
2018-02-14T15:41:02.839Z,7.57
2018-02-14T15:43:31.230Z,11.00
2018-02-14T15:45:59.638Z,4.60
2018-02-14T15:48:28.040Z,6.18
2018-02-14T15:50:56.476Z,7.10
2018-02-14T15:53:27.466Z,9.10
2018-02-14T15:55:55.994Z,6.15
2018-02-14T15:58:24.403Z,8.68
2018-02-14T16:00:54.121Z,7.15
2018-02-14T16:03:23.264Z,6.03
2018-02-14T16:05:52.015Z,5.40
2018-02-14T16:08:20.398Z,4.60
2018-02-14T16:10:48.807Z,5.18
2018-02-14T16:13:17.193Z,7.72
2018-02-14T16:15:45.576Z,6.72
2018-02-14T16:18:13.983Z,11.25
2018-02-14T16:20:42.415Z,6.07
2018-02-14T16:23:10.923Z,5.60
2018-02-14T16:25:39.612Z,7.00
2018-02-14T16:28:08.078Z,8.07
2018-02-14T16:30:36.470Z,9.48
2018-02-14T16:33:04.856Z,9.40
2018-02-14T16:35:33.284Z,7.55
2018-02-14T16:38:01.895Z,6.25
2018-02-14T16:40:30.605Z,7.55
2018-02-14T16:42:59.043Z,9.93
2018-02-14T16:45:27.442Z,7.97
2018-02-14T16:47:55.874Z,9.02
2018-02-14T16:50:24.260Z,10.88
2018-02-14T16:52:52.829Z,7.30
2018-02-14T16:55:21.274Z,13.32
2018-02-14T16:57:49.710Z,10.48
2018-02-14T17:00:18.847Z,10.80
2018-02-14T17:02:47.223Z,12.35
2018-02-14T17:05:15.614Z,9.30
2018-02-14T17:07:44.839Z,12.60
2018-02-14T17:10:13.242Z,11.55
2018-02-14T17:12:41.626Z,8.90
2018-02-14T17:15:10.045Z,11.02
2018-02-14T17:17:39.392Z,9.18
2018-02-14T17:20:07.818Z,12.20
2018-02-14T17:22:36.227Z,10.27
2018-02-14T17:25:05.371Z,8.95
2018-02-14T17:27:33.750Z,10.88
2018-02-14T17:30:02.149Z,9.80
2018-02-14T17:32:30.731Z,13.30
2018-02-14T17:34:59.134Z,11.07
2018-02-14T17:37:28.798Z,8.73
2018-02-14T17:39:57.204Z,10.15
2018-02-14T17:42:26.478Z,9.82
2018-02-14T17:44:55.018Z,10.68
2018-02-14T17:47:24.163Z,10.68
2018-02-14T17:49:52.599Z,11.43
2018-02-14T17:52:21.779Z,13.15
2018-02-14T17:54:50.279Z,9.32
2018-02-14T17:57:18.699Z,11.35
2018-02-14T17:59:47.205Z,11.45
2018-02-14T18:02:15.584Z,11.65
2018-02-14T18:04:43.978Z,12.32
2018-02-14T18:07:12.573Z,12.05
2018-02-14T18:09:40.971Z,12.85
2018-02-14T18:12:10.134Z,17.37
2018-02-14T18:14:38.643Z,15.00
2018-02-14T18:17:07.301Z,12.15
2018-02-14T18:19:35.770Z,11.55
2018-02-14T18:22:04.303Z,21.60
2018-02-14T18:24:33.489Z,13.82
2018-02-14T18:27:02.071Z,14.63
2018-02-14T18:29:30.444Z,12.80
2018-02-14T18:31:58.849Z,13.18
2018-02-14T18:34:28.036Z,12.93
2018-02-14T18:36:56.583Z,13.18
2018-02-14T18:39:25.074Z,13.38
2018-02-14T18:41:53.506Z,14.10
2018-02-14T18:44:22.681Z,11.15
2018-02-14T18:46:51.120Z,13.57
2018-02-14T18:49:19.511Z,11.00
2018-02-14T18:51:48.233Z,11.35
2018-02-14T18:54:16.729Z,11.70
2018-02-14T18:56:45.112Z,14.73
2018-02-14T18:59:14.285Z,14.52
2018-02-14T19:01:42.713Z,14.25
2018-02-14T19:04:11.127Z,10.27
2018-02-14T19:06:39.530Z,19.75
2018-02-14T19:09:08.735Z,15.45
2018-02-14T19:11:37.159Z,14.95
2018-02-14T19:14:05.544Z,14.98
2018-02-14T19:16:33.934Z,11.12
2018-02-14T19:19:02.330Z,12.37
2018-02-14T19:21:30.767Z,11.93
2018-02-14T19:23:59.926Z,12.85
2018-02-14T19:26:28.497Z,13.57
2018-02-14T19:28:56.943Z,12.60
2018-02-14T19:31:25.352Z,12.25
2018-02-14T19:33:53.797Z,14.02
2018-02-14T19:36:22.957Z,12.23
2018-02-14T19:38:51.380Z,13.68
2018-02-14T19:41:20.607Z,12.65
2018-02-14T19:43:49.058Z,12.27
2018-02-14T19:46:18.262Z,13.40
2018-02-14T19:48:47.428Z,10.32
2018-02-14T19:51:15.851Z,11.18
2018-02-14T19:53:44.249Z,12.20
2018-02-14T19:56:12.833Z,15.88
2018-02-14T19:58:41.253Z,12.07
2018-02-14T20:01:09.690Z,14.90
2018-02-14T20:03:38.095Z,15.32
2018-02-14T20:06:06.570Z,17.40
2018-02-14T20:08:35.257Z,16.83
2018-02-14T20:11:03.849Z,17.15
2018-02-14T20:13:32.285Z,17.45
2018-02-14T20:16:01.536Z,15.35
2018-02-14T20:18:30.374Z,15.32
2018-02-14T20:20:59.061Z,12.80
2018-02-14T20:23:27.658Z,13.68
2018-02-14T20:25:56.078Z,15.57
2018-02-14T20:28:24.518Z,16.83
2018-02-14T20:30:52.997Z,13.25
2018-02-14T20:33:21.470Z,15.25
2018-02-14T20:35:50.659Z,16.90
2018-02-14T20:38:19.168Z,14.10
2018-02-14T20:40:47.758Z,14.00
2018-02-14T20:43:16.614Z,15.65
2018-02-14T20:45:45.915Z,14.55
2018-02-14T20:48:14.830Z,13.43
2018-02-14T20:50:43.494Z,13.77
2018-02-14T20:53:11.924Z,12.50
2018-02-14T20:55:41.214Z,12.98
2018-02-14T20:58:09.642Z,14.00
2018-02-14T21:00:38.485Z,18.48
2018-02-14T21:03:06.899Z,17.80
2018-02-14T21:05:35.314Z,14.77
2018-02-14T21:08:03.804Z,21.08
2018-02-14T21:10:32.571Z,16.12
2018-02-14T21:13:01.189Z,16.17
2018-02-14T21:15:30.361Z,12.85
2018-02-14T21:17:58.818Z,15.20
2018-02-14T21:20:27.416Z,12.32
2018-02-14T21:22:55.795Z,19.02
2018-02-14T21:25:24.215Z,17.00
2018-02-14T21:27:53.382Z,16.90
2018-02-14T21:30:21.822Z,15.77
2018-02-14T21:32:50.323Z,15.88
2018-02-14T21:35:19.532Z,15.40
2018-02-14T21:37:47.959Z,15.07
2018-02-14T21:40:17.195Z,19.42
2018-02-14T21:42:45.611Z,14.80
2018-02-14T21:45:14.023Z,15.27
2018-02-14T21:47:43.208Z,15.80
2018-02-14T21:50:12.448Z,15.35
2018-02-14T21:52:40.803Z,14.57
2018-02-14T21:55:09.240Z,16.15
2018-02-14T21:57:37.713Z,19.37
2018-02-14T22:00:06.128Z,18.08
2018-02-14T22:02:34.729Z,17.85
2018-02-14T22:05:03.882Z,15.82
2018-02-14T22:07:32.280Z,16.20
2018-02-14T22:10:00.688Z,15.52
2018-02-14T22:12:29.860Z,18.10
2018-02-14T22:14:58.273Z,16.12
2018-02-14T22:17:27.443Z,17.20
2018-02-14T22:19:55.830Z,16.92
2018-02-14T22:22:24.247Z,16.60
2018-02-14T22:24:52.636Z,19.17
2018-02-14T22:27:21.051Z,17.05
2018-02-14T22:29:50.399Z,15.75
2018-02-14T22:32:19.618Z,19.20
2018-02-14T22:34:48.029Z,16.00
2018-02-14T22:37:16.403Z,19.02
2018-02-14T22:39:44.844Z,15.07
2018-02-14T22:42:13.252Z,20.48
2018-02-14T22:44:41.672Z,19.77
2018-02-14T22:47:11.725Z,21.17
2018-02-14T22:49:40.133Z,21.52
2018-02-14T22:52:08.789Z,23.02
2018-02-14T22:54:37.972Z,16.27
2018-02-14T22:57:07.332Z,19.17
2018-02-14T22:59:35.742Z,15.57
2018-02-14T23:02:04.916Z,19.42
2018-02-14T23:04:33.351Z,20.42
2018-02-14T23:07:01.754Z,20.60
2018-02-14T23:09:30.159Z,20.95
2018-02-14T23:11:58.731Z,19.80
2018-02-14T23:14:27.147Z,17.65
2018-02-14T23:16:55.541Z,18.60
2018-02-14T23:19:23.922Z,19.90
2018-02-14T23:21:52.287Z,20.70
2018-02-14T23:24:20.659Z,19.95
2018-02-14T23:26:49.811Z,19.05
2018-02-14T23:29:18.265Z,20.65
2018-02-14T23:31:46.677Z,21.98
2018-02-14T23:34:16.186Z,33.70
2018-02-14T23:36:44.595Z,22.62
2018-02-14T23:39:13.774Z,18.70
2018-02-14T23:41:42.162Z,20.83
2018-02-14T23:44:10.926Z,20.98
2018-02-14T23:46:39.350Z,20.37
2018-02-14T23:49:08.515Z,21.40
2018-02-14T23:51:36.992Z,16.33
2018-02-14T23:54:05.395Z,18.67
2018-02-14T23:56:33.766Z,21.95
2018-02-14T23:59:03.126Z,23.95
